Blessing Sw — 3FIP7 — position and weather

sailwx.info

Track history (hours):
 
Tides and Currents Weather Stations Pressure Air Temp Water Temp Dewpoint Dewpoint Depression Visibility Wind Speed Wind Dir Waves Ship Positions

Blessing Sw

Last reported at 2017-Aug-04 06:58 UTC. Time now 2017-Oct-17 15:29 UTC.
Position S 32°07' E 032°03'.
Warning: this ship's position is months out of date.

Length 171 m; draft 9.5 m.

Type: Cargo ship. MMSI: 372085000.

Date/timePositionNaut miles runAvg speedWind from/ knotsBaromVisibWave heightAir tempDewpointWater temp
2017-Aug-04 06:58S 32°07' E 032°03'1311.7
2017-Aug-04 05:51S 32°01' E 032°17'511.7
2017-Aug-04 05:28S 31°59' E 032°22'612.0
2017-Aug-04 05:00S 31°57' E 032°28'611.8
2017-Aug-04 04:27S 31°54' E 032°35'611.9
2017-Aug-04 03:57S 31°51' E 032°41'612.3
2017-Aug-04 03:30S 31°49' E 032°47'712.2
2017-Aug-04 02:57S 31°46' E 032°54'812.2
2017-Aug-04 02:18S 31°42' E 033°02'412.1
2017-Aug-04 02:00S 31°41' E 033°06'612.1
2017-Aug-04 01:30S 31°38' E 033°13'612.6
2017-Aug-04 01:00S 31°36' E 033°19'812.9
2017-Aug-04 00:24S 31°32' E 033°28'512.7
2017-Aug-04 00:00S 31°30' E 033°33'612.3
2017-Aug-03 23:30S 31°28' E 033°40'612.3
2017-Aug-03 23:00S 31°25' E 033°46'612.5
2017-Aug-03 22:30S 31°22' E 033°53'612.8
2017-Aug-03 22:00S 31°19' E 033°59'612.9
2017-Aug-03 21:30S 31°17' E 034°06'712.7
2017-Aug-03 21:00S 31°14' E 034°13'612.6
2017-Aug-03 20:30S 31°11' E 034°20'  
Track history (hours):
 
Tides and Currents Weather Stations Pressure Air Temp Water Temp Dewpoint Dewpoint Depression Visibility Wind Speed Wind Dir Waves Ship Positions

Blessing Sw

Last reported at 2017-Aug-04 06:58 UTC. Time now 2017-Oct-17 15:29 UTC.
Position S 32°07' E 032°03'.
Warning: this ship's position is months out of date.

Length 171 m; draft 9.5 m.

Type: Cargo ship. MMSI: 372085000.

Date/timePositionNaut miles runAvg speedWind from/ knotsBaromVisibWave heightAir tempDewpointWater temp
2017-Aug-04 06:58S 32°07' E 032°03'1311.7
2017-Aug-04 05:51S 32°01' E 032°17'511.7
2017-Aug-04 05:28S 31°59' E 032°22'612.0
2017-Aug-04 05:00S 31°57' E 032°28'611.8
2017-Aug-04 04:27S 31°54' E 032°35'611.9
2017-Aug-04 03:57S 31°51' E 032°41'612.3
2017-Aug-04 03:30S 31°49' E 032°47'712.2
2017-Aug-04 02:57S 31°46' E 032°54'812.2
2017-Aug-04 02:18S 31°42' E 033°02'412.1
2017-Aug-04 02:00S 31°41' E 033°06'612.1
2017-Aug-04 01:30S 31°38' E 033°13'612.6
2017-Aug-04 01:00S 31°36' E 033°19'812.9
2017-Aug-04 00:24S 31°32' E 033°28'512.7
2017-Aug-04 00:00S 31°30' E 033°33'612.3
2017-Aug-03 23:30S 31°28' E 033°40'612.3
2017-Aug-03 23:00S 31°25' E 033°46'612.5
2017-Aug-03 22:30S 31°22' E 033°53'612.8
2017-Aug-03 22:00S 31°19' E 033°59'612.9
2017-Aug-03 21:30S 31°17' E 034°06'712.7
2017-Aug-03 21:00S 31°14' E 034°13'612.6
2017-Aug-03 20:30S 31°11' E 034°20'  

Dump ship's entire track history